Time;durP1;ratioP1;P1;durP2;ratioP2;P2;SDS_P1;SDS_P2;PMS_P1;PMS_P2;Temp;Humidity;BMP_temperature;BMP_pressure;BME280_temperature;BME280_humidity;BME280_pressure;Samples;Min_cycle;Max_cycle;Signal;HPM_P1;HPM_P2
2023/12/18 00:01:39;;;;;;;5.18;2.78;;;;;;;;;;5042639;28;20029;-78
2023/12/18 00:04:07;;;;;;;6.07;3.42;;;;;;;;;;5042557;28;20116;-77
2023/12/18 00:06:32;;;;;;;6.38;2.83;;;;;;;;;;5038175;28;20036;-76
2023/12/18 00:08:57;;;;;;;5.76;2.82;;;;;;;;;;5041907;28;20489;-76
2023/12/18 00:11:22;;;;;;;5.32;3.15;;;;;;;;;;5038811;28;20037;-77
2023/12/18 00:13:47;;;;;;;6.18;3.00;;;;;;;;;;5041803;28;20489;-77
2023/12/18 00:16:12;;;;;;;6.88;3.25;;;;;;;;;;5058136;28;20061;-77
2023/12/18 00:18:38;;;;;;;5.30;2.88;;;;;;;;;;5040454;28;20049;-76
2023/12/18 00:21:03;;;;;;;7.57;3.00;;;;;;;;;;5041750;28;20032;-77
2023/12/18 00:23:28;;;;;;;5.85;3.00;;;;;;;;;;5039550;28;20060;-77
2023/12/18 00:25:53;;;;;;;5.47;2.60;;;;;;;;;;5041653;28;20037;-76
2023/12/18 00:28:19;;;;;;;5.35;2.83;;;;;;;;;;5041460;28;20525;-76
2023/12/18 00:30:44;;;;;;;4.63;2.45;;;;;;;;;;5044539;28;20028;-76
2023/12/18 00:33:09;;;;;;;4.85;2.65;;;;;;;;;;5044603;28;20029;-76
2023/12/18 00:35:34;;;;;;;3.67;2.22;;;;;;;;;;5044219;28;20057;-76
2023/12/18 00:37:59;;;;;;;6.14;2.70;;;;;;;;;;5044660;28;20033;-76
2023/12/18 00:40:24;;;;;;;7.85;2.90;;;;;;;;;;5043610;28;20025;-76
2023/12/18 00:42:50;;;;;;;8.72;3.04;;;;;;;;;;5042497;28;20402;-76
2023/12/18 00:45:15;;;;;;;5.68;2.80;;;;;;;;;;5048113;28;20041;-75
2023/12/18 00:47:40;;;;;;;5.88;2.83;;;;;;;;;;5042025;28;20021;-76
2023/12/18 00:50:07;;;;;;;5.47;2.72;;;;;;;;;;5044667;28;20449;-76
2023/12/18 00:52:33;;;;;;;4.90;2.63;;;;;;;;;;5041831;28;20394;-77
2023/12/18 00:54:58;;;;;;;6.72;2.85;;;;;;;;;;5044348;28;20045;-76
2023/12/18 00:57:23;;;;;;;4.50;2.25;;;;;;;;;;5041707;28;20058;-77
2023/12/18 00:59:48;;;;;;;5.30;2.90;;;;;;;;;;5041324;28;20033;-77
2023/12/18 01:02:13;;;;;;;5.35;2.78;;;;;;;;;;5041656;28;20031;-77
2023/12/18 01:04:39;;;;;;;5.76;2.78;;;;;;;;;;5044210;28;20025;-77
2023/12/18 01:07:04;;;;;;;6.00;2.90;;;;;;;;;;5056958;28;20094;-76
2023/12/18 01:09:29;;;;;;;6.57;2.90;;;;;;;;;;5044453;28;20024;-76
2023/12/18 01:11:54;;;;;;;5.57;2.70;;;;;;;;;;5038363;28;20029;-77
2023/12/18 01:14:19;;;;;;;6.22;3.25;;;;;;;;;;5058772;28;20032;-77
2023/12/18 01:16:45;;;;;;;4.72;2.72;;;;;;;;;;5043845;28;20524;-77
2023/12/18 01:19:10;;;;;;;6.15;2.63;;;;;;;;;;5043055;28;20492;-77
2023/12/18 01:21:35;;;;;;;7.20;2.72;;;;;;;;;;5042440;28;20029;-77
2023/12/18 01:24:00;;;;;;;4.45;2.50;;;;;;;;;;5043699;28;20033;-77
2023/12/18 01:26:25;;;;;;;6.10;2.45;;;;;;;;;;5043163;28;20477;-77
2023/12/18 01:28:50;;;;;;;5.38;3.03;;;;;;;;;;5036571;28;20119;-77
2023/12/18 01:31:25;;;;;;;5.07;2.95;;;;;;;;;;5041985;28;20578;-78
2023/12/18 01:33:52;;;;;;;6.15;2.97;;;;;;;;;;5045608;28;20024;-77
2023/12/18 01:36:17;;;;;;;4.93;2.75;;;;;;;;;;5041621;28;20449;-77
2023/12/18 01:38:42;;;;;;;6.15;3.20;;;;;;;;;;5040909;28;20108;-77
2023/12/18 01:41:08;;;;;;;5.20;2.75;;;;;;;;;;5044865;28;20037;-77
2023/12/18 01:43:33;;;;;;;5.28;2.83;;;;;;;;;;5040785;28;20060;-77
2023/12/18 01:45:59;;;;;;;5.55;2.75;;;;;;;;;;5044855;28;20045;-78
2023/12/18 01:48:24;;;;;;;5.72;2.47;;;;;;;;;;5038343;28;20075;-78
2023/12/18 01:50:50;;;;;;;6.35;2.92;;;;;;;;;;5044580;28;20046;-78
2023/12/18 01:53:15;;;;;;;6.80;3.40;;;;;;;;;;5039537;28;20481;-78
2023/12/18 01:55:40;;;;;;;5.03;3.03;;;;;;;;;;5042362;28;20037;-77
2023/12/18 01:58:06;;;;;;;5.10;2.42;;;;;;;;;;5043837;28;20076;-78
2023/12/18 02:00:31;;;;;;;5.30;2.30;;;;;;;;;;5043498;28;20068;-79
2023/12/18 02:02:57;;;;;;;5.55;2.88;;;;;;;;;;5036309;28;20060;-77
2023/12/18 02:05:22;;;;;;;4.72;2.63;;;;;;;;;;5036505;28;20019;-78
2023/12/18 02:07:48;;;;;;;6.82;3.25;;;;;;;;;;5027829;28;20041;-78
2023/12/18 02:10:13;;;;;;;6.70;3.28;;;;;;;;;;5041353;28;20044;-78
2023/12/18 02:12:38;;;;;;;6.50;3.20;;;;;;;;;;5040846;28;20037;-78
2023/12/18 02:15:04;;;;;;;6.68;3.20;;;;;;;;;;5045240;28;20037;-78
2023/12/18 02:17:29;;;;;;;5.50;2.72;;;;;;;;;;5042418;28;20445;-80
2023/12/18 02:20:04;;;;;;;5.80;3.30;;;;;;;;;;5041914;28;20042;-78
2023/12/18 02:22:33;;;;;;;7.05;4.03;;;;;;;;;;5041763;28;20025;-78
2023/12/18 02:24:58;;;;;;;7.25;3.70;;;;;;;;;;5045203;28;20037;-78
2023/12/18 02:27:24;;;;;;;6.32;3.40;;;;;;;;;;5038996;28;20111;-78
2023/12/18 02:29:49;;;;;;;6.85;3.40;;;;;;;;;;5040827;28;20040;-78
2023/12/18 02:32:14;;;;;;;7.75;4.47;;;;;;;;;;5024480;28;20030;-77
2023/12/18 02:34:39;;;;;;;6.03;2.83;;;;;;;;;;5052325;28;20102;-78
2023/12/18 02:37:04;;;;;;;7.63;3.88;;;;;;;;;;5036979;28;20030;-78
2023/12/18 02:39:30;;;;;;;9.45;4.97;;;;;;;;;;5036896;28;20033;-78
2023/12/18 02:41:55;;;;;;;22.55;6.25;;;;;;;;;;5043127;28;20033;-78
2023/12/18 02:44:20;;;;;;;9.98;5.20;;;;;;;;;;5040825;28;20413;-78
2023/12/18 02:46:46;;;;;;;6.95;4.10;;;;;;;;;;5043278;28;20129;-78
2023/12/18 02:49:11;;;;;;;9.00;5.34;;;;;;;;;;5047918;28;20041;-78
2023/12/18 02:51:36;;;;;;;7.97;5.60;;;;;;;;;;5040481;28;20029;-78
2023/12/18 02:54:01;;;;;;;8.48;4.93;;;;;;;;;;5047242;28;20056;-78
2023/12/18 02:56:26;;;;;;;9.05;4.45;;;;;;;;;;5040568;28;20037;-83
2023/12/18 02:58:51;;;;;;;6.30;3.67;;;;;;;;;;5042070;28;20091;-79
2023/12/18 03:01:17;;;;;;;6.75;3.55;;;;;;;;;;5043751;28;20048;-77
2023/12/18 03:03:42;;;;;;;5.72;3.20;;;;;;;;;;5040453;28;20034;-78
2023/12/18 03:06:07;;;;;;;6.78;4.20;;;;;;;;;;5043225;28;20115;-77
2023/12/18 03:08:32;;;;;;;5.70;2.90;;;;;;;;;;5055352;28;20025;-77
2023/12/18 03:10:57;;;;;;;6.57;3.33;;;;;;;;;;5042712;28;20037;-78
2023/12/18 03:13:23;;;;;;;6.07;3.05;;;;;;;;;;5041351;28;20219;-79
2023/12/18 03:15:48;;;;;;;8.30;3.22;;;;;;;;;;5043181;28;20044;-77
2023/12/18 03:18:13;;;;;;;7.78;3.60;;;;;;;;;;5038741;28;20072;-78
2023/12/18 03:20:38;;;;;;;6.40;3.92;;;;;;;;;;5040684;28;20029;-78
2023/12/18 03:23:03;;;;;;;6.55;3.95;;;;;;;;;;5043003;28;20017;-77
2023/12/18 03:25:28;;;;;;;9.93;4.15;;;;;;;;;;5040599;28;20033;-79
2023/12/18 03:27:54;;;;;;;6.47;3.80;;;;;;;;;;5042162;28;20044;-77
2023/12/18 03:30:19;;;;;;;7.80;4.03;;;;;;;;;;5040030;28;20040;-79
2023/12/18 03:32:44;;;;;;;6.78;3.65;;;;;;;;;;5040233;28;20030;-78
2023/12/18 03:35:09;;;;;;;6.78;3.47;;;;;;;;;;5037073;28;20099;-78
2023/12/18 03:37:34;;;;;;;6.47;3.75;;;;;;;;;;5039900;28;20048;-78
2023/12/18 03:39:59;;;;;;;6.85;4.13;;;;;;;;;;5038803;28;20037;-78
2023/12/18 03:42:25;;;;;;;7.15;3.72;;;;;;;;;;5041336;28;20026;-78
2023/12/18 03:44:50;;;;;;;6.88;3.72;;;;;;;;;;5034467;28;20049;-78
2023/12/18 03:47:15;;;;;;;6.18;3.60;;;;;;;;;;5040055;28;20090;-78
2023/12/18 03:49:40;;;;;;;8.40;4.07;;;;;;;;;;5039862;28;20052;-79
2023/12/18 03:52:05;;;;;;;6.10;3.72;;;;;;;;;;5041648;28;20501;-78
2023/12/18 03:54:30;;;;;;;7.28;3.80;;;;;;;;;;5053031;28;20033;-79
2023/12/18 03:56:56;;;;;;;6.68;3.63;;;;;;;;;;5035923;28;20048;-79
2023/12/18 03:59:21;;;;;;;7.95;3.38;;;;;;;;;;5029729;28;20041;-78
2023/12/18 04:01:46;;;;;;;7.86;3.64;;;;;;;;;;5026190;28;20033;-78
2023/12/18 04:04:12;;;;;;;5.46;3.40;;;;;;;;;;5047304;28;20030;-78
2023/12/18 04:06:41;;;;;;;6.63;3.30;;;;;;;;;;5032478;28;20033;-78
2023/12/18 04:09:06;;;;;;;5.70;3.50;;;;;;;;;;5032018;28;20034;-78
2023/12/18 04:11:31;;;;;;;7.82;3.70;;;;;;;;;;5032090;28;20033;-78
2023/12/18 04:13:56;;;;;;;6.88;4.15;;;;;;;;;;5024537;28;20124;-78
2023/12/18 04:16:21;;;;;;;7.00;4.45;;;;;;;;;;5029984;28;20041;-79
2023/12/18 04:18:47;;;;;;;7.07;3.75;;;;;;;;;;5040010;28;20455;-80
2023/12/18 04:21:12;;;;;;;8.80;4.53;;;;;;;;;;5038782;28;20433;-80
2023/12/18 04:23:38;;;;;;;6.53;3.65;;;;;;;;;;5038331;28;20040;-80
2023/12/18 04:26:03;;;;;;;6.38;3.55;;;;;;;;;;5029037;28;20029;-80
2023/12/18 04:28:28;;;;;;;8.75;3.80;;;;;;;;;;5026805;28;20055;-80
2023/12/18 04:30:53;;;;;;;5.82;3.05;;;;;;;;;;5030250;28;20037;-80
2023/12/18 04:33:18;;;;;;;8.02;3.90;;;;;;;;;;5035981;28;20037;-78
2023/12/18 04:35:44;;;;;;;6.13;3.83;;;;;;;;;;5041846;28;20040;-78
2023/12/18 04:38:09;;;;;;;5.97;4.03;;;;;;;;;;5039913;28;20052;-76
2023/12/18 04:40:34;;;;;;;6.13;3.50;;;;;;;;;;5023861;28;20029;-77
2023/12/18 04:42:59;;;;;;;6.35;3.45;;;;;;;;;;5026830;28;20026;-77
2023/12/18 04:45:24;;;;;;;6.35;3.70;;;;;;;;;;5031066;28;20036;-76
2023/12/18 04:47:49;;;;;;;7.15;4.07;;;;;;;;;;5032813;28;20466;-77
2023/12/18 04:50:15;;;;;;;8.45;4.10;;;;;;;;;;5039176;28;20033;-78
2023/12/18 04:52:41;;;;;;;6.00;3.80;;;;;;;;;;5035192;28;20100;-76
2023/12/18 04:55:06;;;;;;;7.30;3.55;;;;;;;;;;5044889;28;20057;-76
2023/12/18 04:57:31;;;;;;;5.75;3.13;;;;;;;;;;5041459;28;20098;-75
2023/12/18 04:59:57;;;;;;;5.75;3.65;;;;;;;;;;5030400;28;20424;-76
2023/12/18 05:02:22;;;;;;;7.07;3.40;;;;;;;;;;5035384;28;20032;-75
2023/12/18 05:04:47;;;;;;;5.57;3.22;;;;;;;;;;5044068;28;20052;-76
2023/12/18 05:07:12;;;;;;;5.47;3.30;;;;;;;;;;5029775;28;20035;-75
2023/12/18 05:09:38;;;;;;;5.07;3.10;;;;;;;;;;5023200;28;20038;-75
2023/12/18 05:12:03;;;;;;;6.55;3.22;;;;;;;;;;5037719;28;20041;-76
2023/12/18 05:14:28;;;;;;;7.07;3.17;;;;;;;;;;5047050;28;20029;-76
2023/12/18 05:16:53;;;;;;;5.22;3.50;;;;;;;;;;5031489;28;20106;-76
2023/12/18 05:19:19;;;;;;;7.53;3.35;;;;;;;;;;5058768;28;20036;-75
2023/12/18 05:21:44;;;;;;;6.32;3.70;;;;;;;;;;5023540;28;20080;-77
2023/12/18 05:24:09;;;;;;;5.35;3.17;;;;;;;;;;5035576;28;20025;-75
2023/12/18 05:26:34;;;;;;;6.20;3.17;;;;;;;;;;5033870;28;20021;-75
2023/12/18 05:28:59;;;;;;;5.72;3.08;;;;;;;;;;5036107;28;20052;-75
2023/12/18 05:31:25;;;;;;;5.50;2.90;;;;;;;;;;5036233;28;20020;-76
2023/12/18 05:33:50;;;;;;;4.93;2.67;;;;;;;;;;5033565;28;20092;-74
2023/12/18 05:36:15;;;;;;;5.85;3.22;;;;;;;;;;5030120;28;20060;-75
2023/12/18 05:38:41;;;;;;;7.43;3.47;;;;;;;;;;5027644;28;20075;-74
2023/12/18 05:41:06;;;;;;;7.65;3.80;;;;;;;;;;5035000;28;20041;-73
2023/12/18 05:43:31;;;;;;;8.82;3.35;;;;;;;;;;5034326;28;20469;-75
2023/12/18 05:45:56;;;;;;;5.78;3.50;;;;;;;;;;5036724;28;20037;-74
2023/12/18 05:48:21;;;;;;;8.23;4.05;;;;;;;;;;5032090;28;20103;-76
2023/12/18 05:50:47;;;;;;;8.75;4.03;;;;;;;;;;5043956;28;20412;-76
2023/12/18 05:53:12;;;;;;;5.38;3.30;;;;;;;;;;5039875;28;20037;-74
2023/12/18 05:55:37;;;;;;;6.90;3.80;;;;;;;;;;5049888;28;20036;-75
2023/12/18 05:58:02;;;;;;;6.15;3.50;;;;;;;;;;5038104;28;20112;-75
2023/12/18 06:00:27;;;;;;;7.45;3.30;;;;;;;;;;5040117;28;20045;-75
2023/12/18 06:02:52;;;;;;;5.85;3.10;;;;;;;;;;5039555;28;20049;-75
2023/12/18 06:05:18;;;;;;;6.43;3.10;;;;;;;;;;5022473;28;20022;-75
2023/12/18 06:07:43;;;;;;;6.10;2.92;;;;;;;;;;5035662;28;20029;-75
2023/12/18 06:10:08;;;;;;;7.57;4.07;;;;;;;;;;5039170;28;20183;-74
2023/12/18 06:12:34;;;;;;;4.90;2.72;;;;;;;;;;5040312;28;20037;-76
2023/12/18 06:14:59;;;;;;;6.38;2.90;;;;;;;;;;5039638;28;20448;-75
2023/12/18 06:17:24;;;;;;;6.05;3.50;;;;;;;;;;5042718;28;20041;-75
2023/12/18 06:19:49;;;;;;;6.20;2.60;;;;;;;;;;5036421;28;20065;-75
2023/12/18 06:22:14;;;;;;;6.38;3.53;;;;;;;;;;5041595;28;20028;-74
2023/12/18 06:24:39;;;;;;;6.18;2.80;;;;;;;;;;5037139;28;20037;-75
2023/12/18 06:27:05;;;;;;;5.75;3.40;;;;;;;;;;5041719;28;20052;-75
2023/12/18 06:29:30;;;;;;;5.90;3.50;;;;;;;;;;5039451;28;20498;-75
2023/12/18 06:31:55;;;;;;;5.47;3.10;;;;;;;;;;5036739;28;20063;-75
2023/12/18 06:34:20;;;;;;;5.82;3.60;;;;;;;;;;5036095;28;20561;-75
2023/12/18 06:36:46;;;;;;;5.70;3.22;;;;;;;;;;5039708;28;20035;-75
2023/12/18 06:39:11;;;;;;;8.27;4.38;;;;;;;;;;5039447;28;20036;-75
2023/12/18 06:41:36;;;;;;;9.50;5.95;;;;;;;;;;5038859;28;20048;-75
2023/12/18 06:44:02;;;;;;;11.43;5.28;;;;;;;;;;5046830;28;20030;-75
2023/12/18 06:46:28;;;;;;;13.40;7.53;;;;;;;;;;5047002;28;20448;-75
2023/12/18 06:48:53;;;;;;;11.05;5.68;;;;;;;;;;5036974;28;20037;-74
2023/12/18 06:51:18;;;;;;;8.20;4.18;;;;;;;;;;5035897;28;20033;-74
2023/12/18 06:53:43;;;;;;;6.93;4.07;;;;;;;;;;5030049;28;20500;-75
2023/12/18 06:56:09;;;;;;;6.95;4.00;;;;;;;;;;5042854;28;20025;-75
2023/12/18 06:58:34;;;;;;;6.70;3.72;;;;;;;;;;5030152;28;20091;-76
2023/12/18 07:01:00;;;;;;;5.80;3.50;;;;;;;;;;5033482;28;20055;-75
2023/12/18 07:03:25;;;;;;;6.63;4.00;;;;;;;;;;5038789;28;20022;-74
2023/12/18 07:05:50;;;;;;;5.50;3.22;;;;;;;;;;5036368;28;20561;-76
2023/12/18 07:08:16;;;;;;;9.43;4.57;;;;;;;;;;5040936;28;20457;-75
2023/12/18 07:10:41;;;;;;;6.97;4.32;;;;;;;;;;5042190;28;20047;-75
2023/12/18 07:13:06;;;;;;;7.07;4.10;;;;;;;;;;5032758;28;20043;-75
2023/12/18 07:15:31;;;;;;;5.88;3.50;;;;;;;;;;5039172;28;20037;-75
2023/12/18 07:18:00;;;;;;;6.85;3.78;;;;;;;;;;5040741;28;20029;-75
2023/12/18 07:20:26;;;;;;;6.57;3.42;;;;;;;;;;5042046;28;20037;-75
2023/12/18 07:22:51;;;;;;;6.78;3.10;;;;;;;;;;5042396;28;20033;-74
2023/12/18 07:25:16;;;;;;;7.03;3.05;;;;;;;;;;5037749;28;20406;-75
2023/12/18 07:27:42;;;;;;;6.95;3.58;;;;;;;;;;5036164;28;20021;-74
2023/12/18 07:30:07;;;;;;;7.53;4.53;;;;;;;;;;5043062;28;20045;-75
2023/12/18 07:32:32;;;;;;;7.75;3.70;;;;;;;;;;5035804;28;20089;-75
2023/12/18 07:34:59;;;;;;;7.07;3.10;;;;;;;;;;5042312;28;20126;-75
2023/12/18 07:37:26;;;;;;;7.22;3.63;;;;;;;;;;5035749;28;20511;-75
2023/12/18 07:39:51;;;;;;;6.18;3.17;;;;;;;;;;5038924;28;20727;-75
2023/12/18 07:42:16;;;;;;;5.25;3.05;;;;;;;;;;5040062;28;20025;-75
2023/12/18 07:44:41;;;;;;;6.90;3.53;;;;;;;;;;5040479;28;20030;-74
2023/12/18 07:47:07;;;;;;;7.43;3.90;;;;;;;;;;5042087;28;20055;-75
2023/12/18 07:49:33;;;;;;;5.85;3.65;;;;;;;;;;5041287;28;20034;-75
2023/12/18 07:51:58;;;;;;;8.98;3.75;;;;;;;;;;5043212;28;20432;-76
2023/12/18 07:54:23;;;;;;;6.95;3.25;;;;;;;;;;5040076;28;20383;-75
2023/12/18 07:56:49;;;;;;;5.88;3.38;;;;;;;;;;5039382;28;20033;-75
2023/12/18 07:59:15;;;;;;;6.72;3.40;;;;;;;;;;5041710;28;20097;-75
2023/12/18 08:01:40;;;;;;;6.95;3.78;;;;;;;;;;5040171;28;20060;-75
2023/12/18 08:04:06;;;;;;;5.70;3.03;;;;;;;;;;5043338;28;20032;-74
2023/12/18 08:06:31;;;;;;;5.47;3.25;;;;;;;;;;5038423;28;20022;-75
2023/12/18 08:08:56;;;;;;;4.63;2.90;;;;;;;;;;5039385;28;20059;-75
2023/12/18 08:11:21;;;;;;;6.38;2.85;;;;;;;;;;5039323;28;20074;-75
2023/12/18 08:13:48;;;;;;;5.75;2.78;;;;;;;;;;5037869;28;20967;-78
2023/12/18 08:16:13;;;;;;;4.38;2.35;;;;;;;;;;5042530;28;20034;-76
2023/12/18 08:18:42;;;;;;;7.90;3.00;;;;;;;;;;5035035;28;20029;-76
2023/12/18 08:21:10;;;;;;;4.97;2.58;;;;;;;;;;5035145;28;20025;-74
2023/12/18 08:23:35;;;;;;;4.85;2.65;;;;;;;;;;5046213;28;20033;-76
2023/12/18 08:26:01;;;;;;;4.82;2.55;;;;;;;;;;5041543;28;20044;-76
2023/12/18 08:28:26;;;;;;;5.03;2.75;;;;;;;;;;5039155;28;20490;-76
2023/12/18 08:30:51;;;;;;;4.72;2.63;;;;;;;;;;5057120;28;20031;-76
2023/12/18 08:33:16;;;;;;;7.13;2.50;;;;;;;;;;5039004;28;20028;-75
2023/12/18 08:35:41;;;;;;;4.30;2.42;;;;;;;;;;5037758;28;20033;-76
2023/12/18 08:38:07;;;;;;;4.53;2.22;;;;;;;;;;5043739;28;20073;-76
2023/12/18 08:40:32;;;;;;;4.63;2.30;;;;;;;;;;5038209;28;20436;-76
2023/12/18 08:42:57;;;;;;;5.90;3.20;;;;;;;;;;5037460;28;20037;-76
2023/12/18 08:45:22;;;;;;;4.80;2.78;;;;;;;;;;5038016;28;20037;-74
2023/12/18 08:47:48;;;;;;;5.28;2.90;;;;;;;;;;5041796;28;20032;-76
2023/12/18 08:50:13;;;;;;;5.22;3.08;;;;;;;;;;5038314;28;20501;-76
2023/12/18 08:52:38;;;;;;;4.53;2.60;;;;;;;;;;5043668;28;20025;-76
2023/12/18 08:55:03;;;;;;;4.93;3.03;;;;;;;;;;5046440;28;20412;-76
2023/12/18 08:57:28;;;;;;;5.25;2.50;;;;;;;;;;5043647;28;20065;-77
2023/12/18 08:59:55;;;;;;;5.78;2.85;;;;;;;;;;5047444;28;20114;-78
2023/12/18 09:02:20;;;;;;;4.53;2.63;;;;;;;;;;5042739;28;20033;-76
2023/12/18 09:04:45;;;;;;;8.23;2.50;;;;;;;;;;5042404;28;20045;-76
2023/12/18 09:07:10;;;;;;;5.22;2.47;;;;;;;;;;5045504;28;20111;-76
2023/12/18 09:09:39;;;;;;;5.13;2.28;;;;;;;;;;5044941;28;20039;-76
2023/12/18 09:12:04;;;;;;;6.78;2.47;;;;;;;;;;5058585;28;20087;-76
2023/12/18 09:14:29;;;;;;;5.13;2.78;;;;;;;;;;5042201;28;20443;-77
2023/12/18 09:16:55;;;;;;;6.60;2.90;;;;;;;;;;5048323;28;20061;-75
2023/12/18 09:19:20;;;;;;;4.90;2.60;;;;;;;;;;5044927;28;20037;-77
2023/12/18 09:21:45;;;;;;;4.18;2.33;;;;;;;;;;5042287;28;20021;-76
2023/12/18 09:24:10;;;;;;;7.47;2.95;;;;;;;;;;5045905;28;20036;-76
2023/12/18 09:26:35;;;;;;;5.32;2.65;;;;;;;;;;5042083;28;20068;-76
2023/12/18 09:29:01;;;;;;;5.00;2.17;;;;;;;;;;5059978;28;20033;-76
2023/12/18 09:31:26;;;;;;;4.82;2.65;;;;;;;;;;5041652;28;20029;-76
2023/12/18 09:33:51;;;;;;;4.72;2.53;;;;;;;;;;5041282;28;20022;-75
2023/12/18 09:36:17;;;;;;;5.00;2.92;;;;;;;;;;5044379;28;20512;-76
2023/12/18 09:38:42;;;;;;;5.50;2.92;;;;;;;;;;5042054;28;20049;-77
2023/12/18 09:41:08;;;;;;;5.75;3.00;;;;;;;;;;5057258;28;20069;-76
2023/12/18 09:43:33;;;;;;;5.00;3.05;;;;;;;;;;5046935;28;20025;-76
2023/12/18 09:45:58;;;;;;;6.50;3.05;;;;;;;;;;5041324;28;20421;-77
2023/12/18 09:48:23;;;;;;;6.03;3.55;;;;;;;;;;5040496;28;20041;-76
2023/12/18 09:50:49;;;;;;;6.53;3.25;;;;;;;;;;5057211;28;20091;-76
2023/12/18 09:53:16;;;;;;;6.00;2.80;;;;;;;;;;5043331;28;20108;-76
2023/12/18 09:55:41;;;;;;;7.15;3.17;;;;;;;;;;5043010;28;20512;-75
2023/12/18 09:58:08;;;;;;;4.93;2.72;;;;;;;;;;5042323;28;20042;-77
2023/12/18 10:00:33;;;;;;;5.65;3.15;;;;;;;;;;5042960;28;20121;-77
2023/12/18 10:02:59;;;;;;;7.22;2.80;;;;;;;;;;5042491;28;20109;-76
2023/12/18 10:05:24;;;;;;;5.70;3.10;;;;;;;;;;5042426;28;20074;-76
2023/12/18 10:07:51;;;;;;;6.55;3.45;;;;;;;;;;5042710;28;20037;-76
2023/12/18 10:10:16;;;;;;;6.22;3.67;;;;;;;;;;5059043;28;20037;-76
2023/12/18 10:12:41;;;;;;;7.32;3.75;;;;;;;;;;5040004;28;20083;-76
2023/12/18 10:15:07;;;;;;;5.90;2.92;;;;;;;;;;5041496;28;20037;-76
2023/12/18 10:17:33;;;;;;;5.30;3.00;;;;;;;;;;5038175;28;20044;-76
2023/12/18 10:20:00;;;;;;;5.50;3.03;;;;;;;;;;5043569;28;20037;-76
2023/12/18 10:22:26;;;;;;;5.07;2.78;;;;;;;;;;5040646;28;20083;-75
2023/12/18 10:24:51;;;;;;;5.90;3.17;;;;;;;;;;5044193;28;20033;-76
2023/12/18 10:27:17;;;;;;;6.30;3.10;;;;;;;;;;5037503;28;20036;-76
2023/12/18 10:29:42;;;;;;;8.57;3.15;;;;;;;;;;5040933;28;20537;-76
2023/12/18 10:32:07;;;;;;;4.93;2.85;;;;;;;;;;5040985;28;20033;-77
2023/12/18 10:34:36;;;;;;;6.22;3.47;;;;;;;;;;5037545;28;20108;-77
2023/12/18 10:37:02;;;;;;;5.90;3.42;;;;;;;;;;5037290;28;20037;-76
2023/12/18 10:39:29;;;;;;;6.80;3.20;;;;;;;;;;5039805;28;20056;-77
2023/12/18 10:41:57;;;;;;;7.43;3.22;;;;;;;;;;5041051;28;20410;-76
2023/12/18 10:44:23;;;;;;;7.20;3.38;;;;;;;;;;5042912;28;20512;-75
2023/12/18 10:46:49;;;;;;;6.68;3.63;;;;;;;;;;5043409;28;20022;-76
2023/12/18 10:49:16;;;;;;;7.15;3.50;;;;;;;;;;5042382;28;20040;-75
2023/12/18 10:51:42;;;;;;;8.07;3.72;;;;;;;;;;5040447;28;20029;-77
2023/12/18 10:54:08;;;;;;;7.10;3.22;;;;;;;;;;5028663;28;20037;-77
2023/12/18 10:56:34;;;;;;;8.43;3.58;;;;;;;;;;5041441;28;20040;-76
2023/12/18 10:59:02;;;;;;;9.57;3.58;;;;;;;;;;5039247;28;20064;-77
2023/12/18 11:01:28;;;;;;;7.28;3.80;;;;;;;;;;5043158;28;20026;-75
2023/12/18 11:03:54;;;;;;;6.15;3.17;;;;;;;;;;5040975;28;20032;-76
2023/12/18 11:06:20;;;;;;;8.40;3.58;;;;;;;;;;5046048;28;20064;-77
2023/12/18 11:08:46;;;;;;;6.65;3.33;;;;;;;;;;5040221;28;20037;-76
2023/12/18 11:11:12;;;;;;;6.20;3.20;;;;;;;;;;5042810;28;20040;-77
2023/12/18 11:13:47;;;;;;;6.25;3.40;;;;;;;;;;5035543;28;20067;-76
2023/12/18 11:16:33;;;;;;;6.40;3.30;;;;;;;;;;5037523;28;20033;-77
2023/12/18 11:19:06;;;;;;;7.57;3.65;;;;;;;;;;5042111;28;20405;-77
2023/12/18 11:21:33;;;;;;;4.80;2.55;;;;;;;;;;5041698;28;20029;-77
2023/12/18 11:23:58;;;;;;;6.05;3.10;;;;;;;;;;5032370;28;20030;-76
2023/12/18 11:26:26;;;;;;;5.63;3.13;;;;;;;;;;5028442;28;20036;-76
2023/12/18 11:28:55;;;;;;;6.22;3.13;;;;;;;;;;5028062;28;20034;-76
2023/12/18 11:31:20;;;;;;;7.55;4.22;;;;;;;;;;5031472;28;20033;-76
2023/12/18 11:33:59;;;;;;;5.97;3.28;;;;;;;;;;5030370;28;20037;-76
2023/12/18 11:36:24;;;;;;;4.88;2.67;;;;;;;;;;5035217;28;20021;-78
2023/12/18 11:38:50;;;;;;;5.88;2.67;;;;;;;;;;5032801;28;20040;-76
2023/12/18 11:41:34;;;;;;;6.07;2.97;;;;;;;;;;5030872;28;20025;-76
2023/12/18 11:44:05;;;;;;;6.03;3.40;;;;;;;;;;5038371;28;20021;-76
2023/12/18 11:46:31;;;;;;;5.15;2.78;;;;;;;;;;5032843;28;20022;-74
2023/12/18 11:48:59;;;;;;;6.20;3.05;;;;;;;;;;5034324;28;20033;-75
2023/12/18 11:51:24;;;;;;;5.13;2.50;;;;;;;;;;5025976;28;20026;-76
2023/12/18 11:53:57;;;;;;;5.63;2.97;;;;;;;;;;5021754;28;20037;-75
2023/12/18 11:56:22;;;;;;;;;;;;;;;;;;5029971;28;20032;-76
2023/12/18 11:58:48;;;;;;;5.95;2.35;;;;;;;;;;5030186;28;19909;-76
2023/12/18 12:01:13;;;;;;;6.53;2.97;;;;;;;;;;5033545;28;20037;-77
2023/12/18 12:03:39;;;;;;;5.07;2.38;;;;;;;;;;5035155;28;20026;-78
2023/12/18 12:06:07;;;;;;;4.05;2.20;;;;;;;;;;5029790;28;20045;-77
2023/12/18 12:08:32;;;;;;;4.85;2.47;;;;;;;;;;5038632;28;20032;-77
2023/12/18 12:10:57;;;;;;;5.90;2.67;;;;;;;;;;5040194;28;20044;-78
2023/12/18 12:13:25;;;;;;;5.88;2.58;;;;;;;;;;5039225;28;20029;-77
2023/12/18 12:15:57;;;;;;;6.70;2.55;;;;;;;;;;5041711;28;20060;-78
2023/12/18 12:18:23;;;;;;;6.88;2.30;;;;;;;;;;5042432;28;20497;-78
2023/12/18 12:20:48;;;;;;;3.38;1.92;;;;;;;;;;5037321;28;20053;-78
2023/12/18 12:23:13;;;;;;;5.40;2.50;;;;;;;;;;5042056;28;20037;-78
2023/12/18 12:25:39;;;;;;;5.05;2.42;;;;;;;;;;5031669;28;20037;-77
2023/12/18 12:28:04;;;;;;;5.50;2.40;;;;;;;;;;5043642;28;20033;-77
2023/12/18 12:30:30;;;;;;;4.80;2.55;;;;;;;;;;5042970;28;20040;-78
2023/12/18 12:32:55;;;;;;;5.50;2.35;;;;;;;;;;5041773;28;20486;-78
2023/12/18 12:35:21;;;;;;;4.97;2.30;;;;;;;;;;5046139;28;20057;-78
2023/12/18 12:37:46;;;;;;;3.50;2.17;;;;;;;;;;5040397;28;21174;-77
2023/12/18 12:40:11;;;;;;;5.45;2.35;;;;;;;;;;5041674;28;20513;-78
2023/12/18 12:42:41;;;;;;;5.65;2.42;;;;;;;;;;5045286;28;20403;-78
2023/12/18 12:45:08;;;;;;;4.45;2.40;;;;;;;;;;5049186;28;20112;-77
2023/12/18 12:47:33;;;;;;;4.88;2.17;;;;;;;;;;5043528;28;20025;-78
2023/12/18 12:50:06;;;;;;;4.70;2.40;;;;;;;;;;5043050;28;20049;-77
2023/12/18 12:52:43;;;;;;;5.35;2.30;;;;;;;;;;5045697;28;20033;-78
2023/12/18 12:55:08;;;;;;;4.15;2.45;;;;;;;;;;5040633;28;20032;-77
2023/12/18 12:57:33;;;;;;;5.15;2.42;;;;;;;;;;5041484;28;20036;-77
2023/12/18 12:59:58;;;;;;;5.72;2.17;;;;;;;;;;5039275;28;20033;-77
2023/12/18 13:02:24;;;;;;;5.60;2.50;;;;;;;;;;5038747;28;20035;-78
2023/12/18 13:04:49;;;;;;;4.53;2.08;;;;;;;;;;5039582;28;20049;-77
2023/12/18 13:07:16;;;;;;;3.90;2.10;;;;;;;;;;5040110;28;20135;-78
2023/12/18 13:09:41;;;;;;;4.38;1.80;;;;;;;;;;5040805;28;20477;-78
2023/12/18 13:12:06;;;;;;;3.95;2.08;;;;;;;;;;5038745;28;20116;-78
2023/12/18 13:14:32;;;;;;;5.20;2.30;;;;;;;;;;5040476;28;20402;-78
2023/12/18 13:16:57;;;;;;;4.43;2.10;;;;;;;;;;5043196;28;20056;-78
2023/12/18 13:19:22;;;;;;;6.50;2.10;;;;;;;;;;5040792;28;20041;-77
2023/12/18 13:21:47;;;;;;;4.72;2.15;;;;;;;;;;5040105;28;20064;-78
2023/12/18 13:24:13;;;;;;;8.70;2.30;;;;;;;;;;5038024;28;20030;-78
2023/12/18 13:26:38;;;;;;;5.35;2.30;;;;;;;;;;5040560;28;20037;-78
2023/12/18 13:29:04;;;;;;;4.82;2.00;;;;;;;;;;5043440;28;20037;-78
2023/12/18 13:31:32;;;;;;;6.00;2.25;;;;;;;;;;5057090;28;20025;-78
2023/12/18 13:33:58;;;;;;;4.05;2.22;;;;;;;;;;5040316;28;20033;-78
2023/12/18 13:36:23;;;;;;;3.70;1.73;;;;;;;;;;5040216;28;20037;-78
2023/12/18 13:38:48;;;;;;;5.25;1.90;;;;;;;;;;5059245;28;20033;-78
2023/12/18 13:41:13;;;;;;;6.60;2.00;;;;;;;;;;5045002;28;20037;-78
2023/12/18 13:43:38;;;;;;;6.50;2.38;;;;;;;;;;5051550;28;20048;-78
2023/12/18 13:46:04;;;;;;;4.63;2.30;;;;;;;;;;5042648;28;20025;-78
2023/12/18 13:48:29;;;;;;;3.33;1.75;;;;;;;;;;5033823;28;20029;-79
2023/12/18 13:50:55;;;;;;;3.15;1.65;;;;;;;;;;5034299;28;20061;-78
2023/12/18 13:53:20;;;;;;;4.40;2.00;;;;;;;;;;5034085;28;20037;-78
2023/12/18 13:55:46;;;;;;;4.65;2.30;;;;;;;;;;5041912;28;20022;-78
2023/12/18 13:58:11;;;;;;;5.35;1.90;;;;;;;;;;5038531;28;20486;-78
2023/12/18 14:00:36;;;;;;;5.75;1.80;;;;;;;;;;5037425;28;20029;-78
2023/12/18 14:03:03;;;;;;;5.00;2.20;;;;;;;;;;5038246;28;20502;-78
2023/12/18 14:05:28;;;;;;;4.00;2.20;;;;;;;;;;5043008;28;20578;-78
2023/12/18 14:07:54;;;;;;;3.78;1.45;;;;;;;;;;5042593;28;20073;-78
2023/12/18 14:10:19;;;;;;;4.65;1.70;;;;;;;;;;5034647;28;20120;-78
2023/12/18 14:12:44;;;;;;;4.63;1.67;;;;;;;;;;5036457;28;20044;-78
2023/12/18 14:15:11;;;;;;;4.00;1.90;;;;;;;;;;5033354;28;20042;-78
2023/12/18 14:17:36;;;;;;;4.93;1.67;;;;;;;;;;5037549;28;20032;-78
2023/12/18 14:20:03;;;;;;;3.40;1.70;;;;;;;;;;5038796;28;20033;-78
2023/12/18 14:22:29;;;;;;;5.30;2.22;;;;;;;;;;5052822;28;20032;-78
2023/12/18 14:24:54;;;;;;;5.57;2.13;;;;;;;;;;5034616;28;20037;-78
2023/12/18 14:27:19;;;;;;;3.92;1.90;;;;;;;;;;5035850;28;20398;-78
2023/12/18 14:29:44;;;;;;;4.30;2.22;;;;;;;;;;5037619;28;20029;-78
2023/12/18 14:32:10;;;;;;;6.40;3.03;;;;;;;;;;5028348;28;20038;-78
2023/12/18 14:34:36;;;;;;;4.50;2.20;;;;;;;;;;5042194;28;20073;-79